createdAt,value
2023-01-17T00:02:55.394Z,46.85
2023-01-17T00:08:07.680Z,39.03
2023-01-17T00:13:02.897Z,41.60
2023-01-17T00:17:56.524Z,43.83
2023-01-17T00:23:08.383Z,47.55
2023-01-17T00:28:01.850Z,42.28
2023-01-17T00:32:54.554Z,39.10
2023-01-17T00:37:48.012Z,46.63
2023-01-17T00:42:41.207Z,40.85
2023-01-17T00:47:55.212Z,44.17
2023-01-17T00:53:08.669Z,45.97
2023-01-17T00:59:11.435Z,43.88
2023-01-17T01:04:23.660Z,39.13
2023-01-17T01:09:35.178Z,37.90
2023-01-17T01:14:47.024Z,39.08
2023-01-17T01:19:58.835Z,39.03
2023-01-17T01:25:11.374Z,36.78
2023-01-17T01:30:23.913Z,47.10
2023-01-17T01:35:17.316Z,43.55
2023-01-17T01:40:14.767Z,44.10
2023-01-17T01:45:47.860Z,48.30
2023-01-17T01:50:41.611Z,42.53
2023-01-17T01:55:41.468Z,48.13
2023-01-17T02:00:35.434Z,49.17
2023-01-17T02:05:29.103Z,44.38
2023-01-17T02:10:22.780Z,44.90
2023-01-17T02:15:15.937Z,41.78
2023-01-17T02:20:34.168Z,42.33
2023-01-17T02:25:51.341Z,42.67
2023-01-17T02:30:49.863Z,41.28
2023-01-17T02:35:42.231Z,46.88
2023-01-17T02:40:57.588Z,46.72
2023-01-17T02:45:50.298Z,45.15
2023-01-17T02:51:10.925Z,41.72
2023-01-17T02:56:51.461Z,43.60
2023-01-17T03:02:34.604Z,46.40
2023-01-17T03:07:29.096Z,40.10
2023-01-17T03:12:23.039Z,44.90
2023-01-17T03:17:16.301Z,40.85
2023-01-17T03:22:09.449Z,42.40
2023-01-17T03:27:02.925Z,49.55
2023-01-17T03:31:56.459Z,47.30
2023-01-17T03:36:50.400Z,42.15
2023-01-17T03:41:44.044Z,46.00
2023-01-17T03:46:37.773Z,46.58
2023-01-17T03:51:32.528Z,48.28
2023-01-17T03:56:26.762Z,48.63
2023-01-17T04:01:21.325Z,44.60
2023-01-17T04:06:14.901Z,42.63
2023-01-17T04:11:07.764Z,45.85
2023-01-17T04:16:01.064Z,53.60
2023-01-17T04:20:55.030Z,54.13
2023-01-17T04:25:48.843Z,46.40
2023-01-17T04:30:41.949Z,45.13
2023-01-17T04:35:35.185Z,42.55
2023-01-17T04:40:29.802Z,42.90
2023-01-17T04:45:22.619Z,47.72
2023-01-17T04:50:15.107Z,45.85
2023-01-17T04:55:09.597Z,52.13
2023-01-17T05:00:03.430Z,55.05
2023-01-17T05:04:56.931Z,56.10
2023-01-17T05:09:49.982Z,53.47
2023-01-17T05:14:43.752Z,55.08
2023-01-17T05:19:37.519Z,58.63
2023-01-17T05:24:31.836Z,55.13
2023-01-17T05:29:25.127Z,54.60
2023-01-17T05:34:18.356Z,49.92
2023-01-17T05:39:11.534Z,48.58
2023-01-17T05:44:05.287Z,41.63
2023-01-17T05:48:59.541Z,45.28
2023-01-17T05:53:53.517Z,48.72
2023-01-17T05:58:47.760Z,47.05
2023-01-17T06:03:41.135Z,48.97
2023-01-17T06:08:33.825Z,52.10
2023-01-17T06:13:27.298Z,47.03
2023-01-17T06:18:19.639Z,45.47
2023-01-17T06:23:14.150Z,45.42
2023-01-17T06:28:10.279Z,47.75
2023-01-17T06:33:04.460Z,51.17
2023-01-17T06:37:58.553Z,52.33
2023-01-17T06:42:52.079Z,54.17
2023-01-17T06:47:45.900Z,56.25
2023-01-17T06:52:39.719Z,58.30
2023-01-17T06:57:32.977Z,52.30
2023-01-17T07:02:26.767Z,54.80
2023-01-17T07:07:20.427Z,56.22
2023-01-17T07:12:15.149Z,55.17
2023-01-17T07:17:08.349Z,64.57
2023-01-17T07:22:01.098Z,54.45
2023-01-17T07:26:55.016Z,56.13
2023-01-17T07:31:50.032Z,63.67
2023-01-17T07:36:43.848Z,56.17
2023-01-17T07:41:41.676Z,56.60
2023-01-17T07:46:35.284Z,47.95
2023-01-17T07:51:28.481Z,44.10
2023-01-17T07:56:21.630Z,45.88
2023-01-17T08:01:15.031Z,45.38
2023-01-17T08:06:24.670Z,46.08
2023-01-17T08:11:18.632Z,46.08
2023-01-17T08:16:12.451Z,43.45
2023-01-17T08:21:07.640Z,45.05
2023-01-17T08:26:01.990Z,43.55
2023-01-17T08:30:55.689Z,46.70
2023-01-17T08:35:56.491Z,45.70
2023-01-17T08:40:50.205Z,49.22
2023-01-17T08:45:47.824Z,44.72
2023-01-17T08:50:41.363Z,51.75
2023-01-17T08:55:39.859Z,53.88
2023-01-17T09:00:33.438Z,60.45
2023-01-17T09:05:27.086Z,49.72
2023-01-17T09:10:20.934Z,46.88
2023-01-17T09:15:18.220Z,60.28
2023-01-17T09:20:13.378Z,54.63
2023-01-17T09:25:09.086Z,54.92
2023-01-17T09:30:02.422Z,60.95
2023-01-17T09:35:01.384Z,54.70
2023-01-17T09:39:54.828Z,64.70
2023-01-17T09:44:51.919Z,57.70
2023-01-17T09:49:47.234Z,58.42
2023-01-17T09:54:42.163Z,53.30
2023-01-17T09:59:45.427Z,57.55
2023-01-17T10:05:05.093Z,60.90
2023-01-17T10:10:18.108Z,55.00
2023-01-17T10:15:52.844Z,53.47
2023-01-17T10:21:11.594Z,61.85
2023-01-17T10:26:19.690Z,54.35
2023-01-17T10:31:21.773Z,53.63
2023-01-17T10:36:37.229Z,53.55
2023-01-17T10:41:33.378Z,54.15
2023-01-17T10:46:31.402Z,49.90
2023-01-17T10:52:25.877Z,50.75
2023-01-17T10:57:24.502Z,47.78
2023-01-17T11:02:43.474Z,55.08
2023-01-17T11:07:40.051Z,56.20
2023-01-17T11:12:44.865Z,53.95
2023-01-17T11:17:53.854Z,52.28
2023-01-17T11:23:05.316Z,54.27
2023-01-17T11:28:30.615Z,45.63
2023-01-17T11:33:56.960Z,42.08
2023-01-17T11:38:58.764Z,42.72
2023-01-17T11:43:55.273Z,45.78
2023-01-17T11:49:10.402Z,40.55
2023-01-17T11:54:30.443Z,42.33
2023-01-17T11:59:35.414Z,35.17
2023-01-17T12:04:31.848Z,38.65
2023-01-17T12:09:27.207Z,33.17
2023-01-17T12:14:49.164Z,38.05
2023-01-17T12:20:06.225Z,25.65
2023-01-17T12:25:03.806Z,32.35
2023-01-17T12:30:21.780Z,30.85
2023-01-17T12:35:27.948Z,29.83
2023-01-17T12:40:23.992Z,26.13
2023-01-17T12:45:25.096Z,28.17
2023-01-17T12:50:47.865Z,25.88
2023-01-17T12:55:51.471Z,24.23
2023-01-17T13:00:47.826Z,23.60
2023-01-17T13:05:45.523Z,24.67
2023-01-17T13:11:02.601Z,29.95
2023-01-17T13:16:11.300Z,24.65
2023-01-17T13:21:28.358Z,25.75
2023-01-17T13:26:45.485Z,17.80
2023-01-17T13:31:45.158Z,20.33
2023-01-17T13:37:17.079Z,19.42
2023-01-17T13:42:42.225Z,17.45
2023-01-17T13:47:41.002Z,15.95
2023-01-17T13:52:34.869Z,14.43
2023-01-17T13:57:30.357Z,20.20
2023-01-17T14:02:32.575Z,14.20
2023-01-17T14:07:27.360Z,14.82
2023-01-17T14:12:19.840Z,15.70
2023-01-17T14:17:25.846Z,13.65
2023-01-17T14:22:18.457Z,12.77
2023-01-17T14:27:17.228Z,16.38
2023-01-17T14:32:23.926Z,11.63
2023-01-17T14:37:21.209Z,11.85
2023-01-17T14:42:34.268Z,14.20
2023-01-17T14:47:30.805Z,11.90
2023-01-17T14:52:24.655Z,15.18
2023-01-17T14:57:29.626Z,11.65
2023-01-17T15:02:23.407Z,9.65
2023-01-17T15:07:16.929Z,15.57
2023-01-17T15:12:12.135Z,13.02
2023-01-17T15:17:13.459Z,14.30
2023-01-17T15:22:06.420Z,10.07
2023-01-17T15:26:58.920Z,8.60
2023-01-17T15:31:58.324Z,9.93
2023-01-17T15:36:58.110Z,9.27
2023-01-17T15:41:54.906Z,8.88
2023-01-17T15:46:48.084Z,7.53
2023-01-17T15:51:43.054Z,8.63
2023-01-17T15:56:36.956Z,10.63
2023-01-17T16:01:30.354Z,9.82
2023-01-17T16:06:36.469Z,8.02
2023-01-17T16:11:30.074Z,13.23
2023-01-17T16:16:27.138Z,9.30
2023-01-17T16:21:45.711Z,8.55
2023-01-17T16:26:38.327Z,10.45
2023-01-17T16:31:31.896Z,13.02
2023-01-17T16:36:24.648Z,9.40
2023-01-17T16:41:18.306Z,9.70
2023-01-17T16:46:13.141Z,8.50
2023-01-17T16:51:08.112Z,8.05
2023-01-17T16:56:10.336Z,8.70
2023-01-17T17:01:03.858Z,6.93
2023-01-17T17:05:59.831Z,7.40
2023-01-17T17:10:52.675Z,8.25
2023-01-17T17:15:46.343Z,8.00
2023-01-17T17:20:39.544Z,8.50
2023-01-17T17:25:33.755Z,7.78
2023-01-17T17:30:28.042Z,8.73
2023-01-17T17:35:21.982Z,10.93
2023-01-17T17:40:14.788Z,14.63
2023-01-17T17:45:09.809Z,8.40
2023-01-17T17:50:02.845Z,7.30
2023-01-17T17:54:58.357Z,8.18
2023-01-17T17:59:51.641Z,6.82
2023-01-17T18:04:45.060Z,7.47
2023-01-17T18:09:39.763Z,5.47
2023-01-17T18:14:33.151Z,6.68
2023-01-17T18:19:27.752Z,7.32
2023-01-17T18:24:22.332Z,8.55
2023-01-17T18:29:17.051Z,10.50
2023-01-17T18:34:12.785Z,8.07
2023-01-17T18:39:12.980Z,14.15
2023-01-17T18:44:06.312Z,8.23
2023-01-17T18:48:59.939Z,9.15
2023-01-17T18:53:53.583Z,11.80
2023-01-17T18:58:48.606Z,8.38
2023-01-17T19:03:43.922Z,10.73
2023-01-17T19:08:36.909Z,10.80
2023-01-17T19:13:29.896Z,11.07
2023-01-17T19:18:23.776Z,10.55
2023-01-17T19:23:16.774Z,11.77
2023-01-17T19:28:10.580Z,10.70
2023-01-17T19:33:04.470Z,11.20
2023-01-17T19:37:58.331Z,9.93
2023-01-17T19:42:51.573Z,11.77
2023-01-17T19:47:45.133Z,10.75
2023-01-17T19:52:37.930Z,11.50
2023-01-17T19:57:35.026Z,16.10
2023-01-17T20:02:28.933Z,11.90
2023-01-17T20:07:23.259Z,11.18
2023-01-17T20:12:16.717Z,13.57
2023-01-17T20:17:10.825Z,14.05
2023-01-17T20:22:06.228Z,14.10
2023-01-17T20:26:59.069Z,14.57
2023-01-17T20:31:52.780Z,13.95
2023-01-17T20:36:46.017Z,18.00
2023-01-17T20:41:41.609Z,16.55
2023-01-17T20:46:40.418Z,13.63
2023-01-17T20:51:40.849Z,14.82
2023-01-17T20:56:38.264Z,14.95
2023-01-17T21:01:32.234Z,15.60
2023-01-17T21:06:25.777Z,16.08
2023-01-17T21:11:21.784Z,22.63
2023-01-17T21:16:17.147Z,14.88
2023-01-17T21:21:14.343Z,10.88
2023-01-17T21:26:10.060Z,12.63
2023-01-17T21:31:29.359Z,10.63
2023-01-17T21:36:24.206Z,10.25
2023-01-17T21:41:17.451Z,10.45
2023-01-17T21:46:09.763Z,16.10
2023-01-17T21:51:07.172Z,24.17
2023-01-17T21:56:23.881Z,26.35
2023-01-17T22:01:21.890Z,25.98
2023-01-17T22:06:15.599Z,28.23
2023-01-17T22:11:14.421Z,25.17
2023-01-17T22:16:11.180Z,26.13
2023-01-17T22:21:09.229Z,30.48
2023-01-17T22:26:22.042Z,27.13
2023-01-17T22:31:20.834Z,25.67
2023-01-17T22:41:11.451Z,33.22
2023-01-17T22:46:10.304Z,25.52
2023-01-17T22:51:05.351Z,24.48
2023-01-17T22:56:03.174Z,24.83
2023-01-17T23:01:03.904Z,27.30
2023-01-17T23:06:04.896Z,25.20
2023-01-17T23:11:16.965Z,23.08
2023-01-17T23:16:28.993Z,23.70
2023-01-17T23:21:25.483Z,26.17
2023-01-17T23:26:19.112Z,25.25
2023-01-17T23:31:12.873Z,23.45
2023-01-17T23:36:09.513Z,26.02
2023-01-17T23:41:21.450Z,27.00
2023-01-17T23:46:14.547Z,26.10
2023-01-17T23:51:09.133Z,25.35
2023-01-17T23:56:19.024Z,28.67
